Time;durP1;ratioP1;P1;durP2;ratioP2;P2;SDS_P1;SDS_P2;PMS_P1;PMS_P2;Temp;Humidity;BMP_temperature;BMP_pressure;BME280_temperature;BME280_humidity;BME280_pressure;Samples;Min_cycle;Max_cycle;Signal;HPM_P1;HPM_P2
2022/02/28 00:00:31;;;;;;;16.38;10.35;;;0.70;99.90;;;;;;5069874;28;20503;-53
2022/02/28 00:02:57;;;;;;;16.33;11.18;;;0.70;99.90;;;;;;5051062;28;20393;-52
2022/02/28 00:05:23;;;;;;;14.40;10.07;;;0.70;99.90;;;;;;5069406;28;20054;-54
2022/02/28 00:07:49;;;;;;;16.38;11.05;;;0.60;99.90;;;;;;5069370;28;20572;-54
2022/02/28 00:10:16;;;;;;;19.27;11.15;;;0.60;99.90;;;;;;5069721;28;20036;-50
2022/02/28 00:12:43;;;;;;;19.85;11.60;;;0.50;99.90;;;;;;5069170;28;20166;-49
2022/02/28 00:15:10;;;;;;;17.48;11.02;;;0.50;99.90;;;;;;5069474;28;20103;-53
2022/02/28 00:17:36;;;;;;;20.23;11.73;;;0.50;99.90;;;;;;5069881;28;20692;-54
2022/02/28 00:20:05;;;;;;;20.83;10.90;;;0.50;99.90;;;;;;5069585;28;20100;-50
2022/02/28 00:22:30;;;;;;;17.85;10.30;;;0.50;99.90;;;;;;5068894;28;20052;-54
2022/02/28 00:24:56;;;;;;;16.95;11.15;;;0.50;99.90;;;;;;5069512;28;20037;-53
2022/02/28 00:27:21;;;;;;;17.33;10.63;;;0.40;99.90;;;;;;5069384;28;20545;-51
2022/02/28 00:29:47;;;;;;;17.52;11.48;;;0.40;99.90;;;;;;5068809;28;20024;-52
2022/02/28 00:32:13;;;;;;;19.80;10.48;;;0.40;99.90;;;;;;5069036;28;20039;-55
2022/02/28 00:34:38;;;;;;;19.15;11.27;;;0.40;99.90;;;;;;5068992;28;20024;-56
2022/02/28 00:37:04;;;;;;;21.30;11.10;;;0.40;99.90;;;;;;5069233;28;20127;-50
2022/02/28 00:39:30;;;;;;;20.45;11.70;;;0.40;99.90;;;;;;5051573;28;20381;-53
2022/02/28 00:41:55;;;;;;;19.88;12.02;;;0.40;99.90;;;;;;5068662;28;20038;-56
2022/02/28 00:44:21;;;;;;;18.25;11.38;;;0.30;99.90;;;;;;5068821;28;20127;-51
2022/02/28 00:46:47;;;;;;;17.30;11.00;;;0.30;99.90;;;;;;5050806;28;20039;-54
2022/02/28 00:49:12;;;;;;;17.20;11.50;;;0.30;99.90;;;;;;5068794;28;20032;-53
2022/02/28 00:51:38;;;;;;;21.23;11.68;;;0.30;99.90;;;;;;5068821;28;20044;-49
2022/02/28 00:54:03;;;;;;;21.23;10.93;;;0.30;99.90;;;;;;5068823;28;20043;-51
2022/02/28 00:56:29;;;;;;;19.38;10.82;;;0.20;99.90;;;;;;5069081;28;20455;-53
2022/02/28 00:58:55;;;;;;;18.92;11.52;;;0.20;99.90;;;;;;5068606;28;20040;-54
2022/02/28 01:01:20;;;;;;;17.63;11.02;;;0.20;99.90;;;;;;5068570;28;20037;-52
2022/02/28 01:03:46;;;;;;;16.38;9.73;;;0.20;99.90;;;;;;5068275;28;20048;-54
2022/02/28 01:06:12;;;;;;;16.67;10.73;;;0.20;99.90;;;;;;5065810;28;20093;-48
2022/02/28 01:08:39;;;;;;;22.10;11.57;;;0.10;99.90;;;;;;5068983;28;20379;-52
2022/02/28 01:11:05;;;;;;;18.98;11.05;;;0.10;99.90;;;;;;5068667;28;20086;-53
2022/02/28 01:13:30;;;;;;;15.32;10.38;;;0.10;99.90;;;;;;5068787;28;20405;-51
2022/02/28 01:15:56;;;;;;;17.80;10.60;;;0.00;99.90;;;;;;5068690;28;20044;-54
2022/02/28 01:18:22;;;;;;;17.58;10.70;;;0.00;99.90;;;;;;5068590;28;20024;-51
2022/02/28 01:20:47;;;;;;;21.63;11.57;;;0.00;99.90;;;;;;5069050;28;20108;-54
2022/02/28 01:23:13;;;;;;;18.08;10.65;;;0.00;99.90;;;;;;5068278;28;20063;-50
2022/02/28 01:25:38;;;;;;;15.68;10.95;;;0.00;99.90;;;;;;5050578;28;20098;-54
2022/02/28 01:28:04;;;;;;;16.00;10.82;;;0.00;99.90;;;;;;5068136;28;20032;-53
2022/02/28 01:30:30;;;;;;;19.52;10.82;;;-0.10;99.90;;;;;;5068330;28;20029;-53
2022/02/28 01:32:55;;;;;;;16.95;10.68;;;-0.10;99.90;;;;;;5068523;28;20481;-50
2022/02/28 01:35:21;;;;;;;17.67;11.60;;;-0.10;99.90;;;;;;5068436;28;20039;-52
2022/02/28 01:37:46;;;;;;;16.02;10.73;;;-0.10;99.90;;;;;;5068579;28;20040;-51
2022/02/28 01:40:14;;;;;;;15.38;11.68;;;-0.10;99.90;;;;;;5050470;28;20496;-55
2022/02/28 01:42:41;;;;;;;15.80;10.45;;;-0.10;99.90;;;;;;5067873;28;20033;-50
2022/02/28 01:45:15;;;;;;;21.15;10.40;;;-0.20;99.90;;;;;;5071524;28;20077;-53
2022/02/28 01:47:42;;;;;;;17.65;10.75;;;-0.20;99.90;;;;;;5072251;28;20689;-50
2022/02/28 01:50:08;;;;;;;17.83;11.98;;;-0.20;99.90;;;;;;5072433;28;20089;-51
2022/02/28 01:52:34;;;;;;;17.25;11.52;;;-0.20;99.90;;;;;;5072103;28;20041;-51
2022/02/28 01:55:00;;;;;;;15.50;10.93;;;-0.20;99.90;;;;;;5072405;28;20085;-51
2022/02/28 01:57:26;;;;;;;22.52;11.48;;;-0.20;99.90;;;;;;5072202;28;20063;-51
2022/02/28 01:59:51;;;;;;;20.08;11.98;;;-0.20;99.90;;;;;;5050935;28;20033;-51
2022/02/28 02:02:17;;;;;;;15.90;10.95;;;-0.20;99.90;;;;;;5069693;28;20033;-54
2022/02/28 02:04:43;;;;;;;18.17;10.68;;;-0.20;99.90;;;;;;5070645;28;20093;-51
2022/02/28 02:07:09;;;;;;;19.88;11.00;;;-0.20;99.90;;;;;;5072052;28;20111;-52
2022/02/28 02:09:35;;;;;;;19.67;11.20;;;-0.30;99.90;;;;;;5072076;28;20028;-55
2022/02/28 02:12:04;;;;;;;19.67;11.55;;;-0.30;99.90;;;;;;5071852;28;20107;-53
2022/02/28 02:14:32;;;;;;;21.95;11.98;;;-0.30;99.90;;;;;;5071655;28;20108;-54
2022/02/28 02:16:58;;;;;;;19.17;11.45;;;-0.30;99.90;;;;;;5071754;28;20041;-50
2022/02/28 02:19:24;;;;;;;16.10;10.88;;;-0.40;99.90;;;;;;5071609;28;20043;-53
2022/02/28 02:21:49;;;;;;;19.70;11.40;;;-0.40;99.90;;;;;;5070380;28;20039;-53
2022/02/28 02:24:15;;;;;;;24.80;12.60;;;-0.40;99.90;;;;;;5071152;28;20391;-51
2022/02/28 02:26:40;;;;;;;19.75;11.98;;;-0.40;99.90;;;;;;5071456;28;20103;-52
2022/02/28 02:29:06;;;;;;;16.77;11.50;;;-0.40;99.90;;;;;;5071333;28;20111;-54
2022/02/28 02:31:32;;;;;;;17.67;11.20;;;-0.40;99.90;;;;;;5070778;28;20040;-50
2022/02/28 02:33:57;;;;;;;20.23;11.32;;;-0.40;99.90;;;;;;5071182;28;20407;-53
2022/02/28 02:36:23;;;;;;;17.38;11.10;;;-0.40;99.90;;;;;;5070887;28;20060;-51
2022/02/28 02:38:51;;;;;;;16.92;10.85;;;-0.50;99.90;;;;;;5071568;28;20062;-54
2022/02/28 02:41:17;;;;;;;19.23;11.10;;;-0.40;99.90;;;;;;5071351;28;20032;-53
2022/02/28 02:43:42;;;;;;;19.60;11.95;;;-0.50;99.90;;;;;;5070774;28;20047;-51
2022/02/28 02:46:08;;;;;;;15.63;10.95;;;-0.50;99.90;;;;;;5070429;28;20032;-52
2022/02/28 02:48:34;;;;;;;19.77;11.52;;;-0.50;99.90;;;;;;5070945;28;20037;-51
2022/02/28 02:51:00;;;;;;;17.98;11.18;;;-0.50;99.90;;;;;;5070980;28;20078;-53
2022/02/28 02:53:25;;;;;;;21.77;11.85;;;-0.50;99.90;;;;;;5070924;28;20032;-51
2022/02/28 02:55:51;;;;;;;17.45;11.15;;;-0.50;99.90;;;;;;5069943;28;20040;-51
2022/02/28 02:58:17;;;;;;;19.42;12.60;;;-0.60;99.90;;;;;;5070935;28;20032;-52
2022/02/28 03:00:49;;;;;;;19.67;11.93;;;-0.50;99.90;;;;;;5071111;28;20575;-51
2022/02/28 03:03:19;;;;;;;18.30;11.48;;;-0.60;99.90;;;;;;5070362;28;20036;-51
2022/02/28 03:05:48;;;;;;;23.13;11.57;;;-0.60;99.90;;;;;;5070766;28;20032;-52
2022/02/28 03:08:14;;;;;;;19.25;11.88;;;-0.60;99.90;;;;;;5071010;28;20028;-51
2022/02/28 03:10:40;;;;;;;23.40;11.60;;;-0.60;99.90;;;;;;5071301;28;20107;-54
2022/02/28 03:13:06;;;;;;;16.98;10.48;;;-0.60;99.90;;;;;;5069974;28;20178;-54
2022/02/28 03:15:31;;;;;;;20.63;11.65;;;-0.60;99.90;;;;;;5070806;28;20381;-55
2022/02/28 03:17:57;;;;;;;20.63;11.85;;;-0.60;99.90;;;;;;5070621;28;20115;-54
2022/02/28 03:20:23;;;;;;;20.65;12.02;;;-0.60;99.90;;;;;;5070985;28;20189;-50
2022/02/28 03:22:49;;;;;;;19.35;11.50;;;-0.60;99.90;;;;;;5068884;28;20655;-52
2022/02/28 03:25:15;;;;;;;18.60;11.90;;;-0.60;99.90;;;;;;5070644;28;20028;-53
2022/02/28 03:27:40;;;;;;;22.10;11.02;;;-0.70;99.90;;;;;;5070488;28;20158;-52
2022/02/28 03:30:08;;;;;;;21.67;11.93;;;-0.70;99.90;;;;;;5070564;28;20127;-53
2022/02/28 03:32:34;;;;;;;20.90;12.32;;;-0.70;99.90;;;;;;5070752;28;20400;-52
2022/02/28 03:35:02;;;;;;;20.17;11.48;;;-0.70;99.90;;;;;;5070328;28;20039;-54
2022/02/28 03:37:27;;;;;;;19.83;12.23;;;-0.70;99.90;;;;;;5070440;28;20036;-51
2022/02/28 03:39:55;;;;;;;22.33;13.50;;;-0.70;99.90;;;;;;5069545;28;20029;-51
2022/02/28 03:42:20;;;;;;;17.17;11.15;;;-0.70;99.90;;;;;;5065321;28;20036;-52
2022/02/28 03:44:46;;;;;;;20.83;12.95;;;-0.70;99.90;;;;;;5069938;28;20104;-51
2022/02/28 03:47:12;;;;;;;20.75;12.00;;;-0.70;99.90;;;;;;5069299;28;20099;-51
2022/02/28 03:49:38;;;;;;;20.60;12.07;;;-0.70;99.90;;;;;;5070562;28;20059;-56
2022/02/28 03:52:04;;;;;;;20.83;12.25;;;-0.70;99.90;;;;;;5070000;28;20028;-52
2022/02/28 03:54:30;;;;;;;20.60;12.43;;;-0.70;99.90;;;;;;5069877;28;20033;-53
2022/02/28 03:56:56;;;;;;;19.85;12.35;;;-0.70;99.90;;;;;;5069441;28;20127;-52
2022/02/28 03:59:21;;;;;;;22.27;11.85;;;-0.70;99.90;;;;;;5069927;28;20038;-53
2022/02/28 04:01:47;;;;;;;18.45;11.50;;;-0.70;99.90;;;;;;5052473;28;20492;-52
2022/02/28 04:04:12;;;;;;;21.42;12.25;;;-0.70;99.90;;;;;;5069903;28;20078;-56
2022/02/28 04:06:38;;;;;;;21.35;12.80;;;-0.80;99.90;;;;;;5069656;28;20039;-52
2022/02/28 04:09:04;;;;;;;21.50;13.18;;;-0.80;99.90;;;;;;5069510;28;20037;-52
2022/02/28 04:11:31;;;;;;;18.52;11.68;;;-0.80;99.90;;;;;;5069509;28;20408;-54
2022/02/28 04:13:57;;;;;;;25.45;13.32;;;-0.80;99.90;;;;;;5051132;28;20066;-53
2022/02/28 04:16:23;;;;;;;24.02;12.80;;;-0.80;99.90;;;;;;5069663;28;20407;-51
2022/02/28 04:18:48;;;;;;;24.23;12.65;;;-0.90;99.90;;;;;;5069740;28;20064;-52
2022/02/28 04:21:14;;;;;;;22.40;12.68;;;-0.90;99.90;;;;;;5069651;28;20064;-50
2022/02/28 04:23:40;;;;;;;19.20;13.23;;;-0.90;99.90;;;;;;5069086;28;20062;-53
2022/02/28 04:26:05;;;;;;;21.15;13.68;;;-0.90;99.90;;;;;;5069001;28;20024;-54
2022/02/28 04:28:31;;;;;;;18.05;11.73;;;-0.90;99.90;;;;;;5069405;28;20032;-50
2022/02/28 04:30:56;;;;;;;19.75;12.20;;;-0.90;99.90;;;;;;5069462;28;20043;-55
2022/02/28 04:33:22;;;;;;;18.75;12.20;;;-1.00;99.90;;;;;;5068973;28;20032;-53
2022/02/28 04:35:47;;;;;;;21.92;12.18;;;-1.00;99.90;;;;;;5067751;28;20389;-53
2022/02/28 04:38:14;;;;;;;22.45;12.73;;;-1.00;99.90;;;;;;5069114;28;20525;-50
2022/02/28 04:40:40;;;;;;;19.88;12.25;;;-1.10;99.90;;;;;;5051291;28;20090;-53
2022/02/28 04:43:06;;;;;;;19.85;12.07;;;-1.00;99.90;;;;;;5068752;28;20064;-53
2022/02/28 04:45:32;;;;;;;18.73;12.40;;;-1.00;99.90;;;;;;5069017;28;20037;-54
2022/02/28 04:47:57;;;;;;;19.35;12.45;;;-1.00;99.90;;;;;;5051360;28;20029;-54
2022/02/28 04:50:24;;;;;;;24.13;13.27;;;-1.10;99.90;;;;;;5069225;28;20118;-54
2022/02/28 04:52:49;;;;;;;20.98;13.10;;;-1.10;99.90;;;;;;5068615;28;20032;-53
2022/02/28 04:55:15;;;;;;;21.75;12.95;;;-1.10;99.90;;;;;;5069006;28;20032;-53
2022/02/28 04:57:43;;;;;;;19.02;12.38;;;-1.10;99.90;;;;;;5069046;28;20059;-54
2022/02/28 05:00:11;;;;;;;21.27;13.57;;;-1.10;99.90;;;;;;5068543;28;20082;-50
2022/02/28 05:02:38;;;;;;;21.13;12.68;;;-1.10;99.90;;;;;;5068706;28;20028;-54
2022/02/28 05:05:04;;;;;;;22.90;13.00;;;-1.10;99.90;;;;;;5068883;28;20028;-55
2022/02/28 05:07:30;;;;;;;21.27;13.07;;;-1.10;99.90;;;;;;5052474;28;20078;-52
2022/02/28 05:09:56;;;;;;;22.27;12.50;;;-1.10;99.90;;;;;;5069021;28;20021;-51
2022/02/28 05:12:22;;;;;;;23.80;13.88;;;-1.10;99.90;;;;;;5068409;28;20040;-53
2022/02/28 05:14:48;;;;;;;24.10;13.45;;;-1.10;99.90;;;;;;5068772;28;20060;-52
2022/02/28 05:17:13;;;;;;;24.33;12.63;;;-1.10;99.90;;;;;;5051058;28;20045;-53
2022/02/28 05:19:39;;;;;;;21.15;12.73;;;-1.10;99.90;;;;;;5068132;28;20095;-55
2022/02/28 05:22:05;;;;;;;21.90;13.18;;;-1.20;99.90;;;;;;5068266;28;20484;-55
2022/02/28 05:24:32;;;;;;;21.55;12.98;;;-1.20;99.90;;;;;;5068412;28;20028;-52
2022/02/28 05:26:58;;;;;;;24.17;12.63;;;-1.20;99.90;;;;;;5051095;28;20056;-50
2022/02/28 05:29:23;;;;;;;23.17;13.60;;;-1.20;99.90;;;;;;5050491;28;20514;-54
2022/02/28 05:31:49;;;;;;;21.13;13.27;;;-1.20;99.90;;;;;;5068722;28;20032;-53
2022/02/28 05:34:14;;;;;;;24.42;14.43;;;-1.30;99.90;;;;;;5068362;28;20103;-52
2022/02/28 05:36:40;;;;;;;24.63;13.10;;;-1.20;99.90;;;;;;5068412;28;20584;-51
2022/02/28 05:39:06;;;;;;;24.10;14.30;;;-1.30;99.90;;;;;;5068345;28;20032;-52
2022/02/28 05:41:31;;;;;;;23.65;14.32;;;-1.20;99.90;;;;;;5068369;28;20036;-55
2022/02/28 05:43:57;;;;;;;22.23;13.18;;;-1.30;99.90;;;;;;5068343;28;20081;-53
2022/02/28 05:46:22;;;;;;;20.73;12.75;;;-1.30;99.90;;;;;;5068519;28;20094;-51
2022/02/28 05:48:48;;;;;;;25.83;13.60;;;-1.30;99.90;;;;;;5068854;28;20021;-54
2022/02/28 05:51:14;;;;;;;23.83;14.07;;;-1.30;99.90;;;;;;5068797;28;20404;-51
2022/02/28 05:53:39;;;;;;;25.45;14.80;;;-1.30;99.90;;;;;;5068322;28;20519;-53
2022/02/28 05:56:05;;;;;;;27.33;14.70;;;-1.30;99.90;;;;;;5068569;28;20028;-51
2022/02/28 05:58:31;;;;;;;25.30;14.55;;;-1.30;99.90;;;;;;5068147;28;20159;-51
2022/02/28 06:00:57;;;;;;;24.58;14.55;;;-1.30;99.90;;;;;;5068646;28;20047;-56
2022/02/28 06:03:22;;;;;;;24.13;14.13;;;-1.30;99.90;;;;;;5068055;28;20024;-52
2022/02/28 06:05:48;;;;;;;24.63;14.30;;;-1.30;99.90;;;;;;5068456;28;20024;-52
2022/02/28 06:08:14;;;;;;;23.30;14.77;;;-1.30;99.90;;;;;;5068495;28;20024;-55
2022/02/28 06:10:39;;;;;;;24.13;14.25;;;-1.30;99.90;;;;;;5068336;28;20020;-52
2022/02/28 06:13:05;;;;;;;20.35;14.40;;;-1.30;99.90;;;;;;5067736;28;20066;-53
2022/02/28 06:15:31;;;;;;;25.95;15.30;;;-1.30;99.90;;;;;;5068000;28;20048;-51
2022/02/28 06:18:01;;;;;;;27.20;15.73;;;-1.30;99.90;;;;;;5068087;28;20078;-53
2022/02/28 06:20:28;;;;;;;27.80;15.85;;;-1.30;99.90;;;;;;5068149;28;20020;-51
2022/02/28 06:22:53;;;;;;;23.67;14.88;;;-1.20;99.90;;;;;;5067461;28;20032;-53
2022/02/28 06:25:19;;;;;;;22.60;15.88;;;-1.30;99.90;;;;;;5067924;28;20565;-51
2022/02/28 06:27:45;;;;;;;26.85;15.75;;;-1.30;99.90;;;;;;5050510;28;20142;-51
2022/02/28 06:30:11;;;;;;;26.55;14.68;;;-1.30;99.90;;;;;;5069647;28;20074;-54
2022/02/28 06:32:36;;;;;;;31.02;16.73;;;-1.30;99.90;;;;;;5071555;28;20107;-52
2022/02/28 06:35:03;;;;;;;29.52;17.15;;;-1.20;99.90;;;;;;5071392;28;20031;-53
2022/02/28 06:37:29;;;;;;;28.42;16.33;;;-1.20;99.90;;;;;;5070951;28;20024;-52
2022/02/28 06:39:55;;;;;;;27.52;16.48;;;-1.30;99.90;;;;;;5071327;28;20029;-50
2022/02/28 06:42:20;;;;;;;24.15;14.70;;;-1.30;99.90;;;;;;5071670;28;20029;-50
2022/02/28 06:44:46;;;;;;;32.30;16.90;;;-1.30;99.90;;;;;;5071185;28;20032;-55
2022/02/28 06:47:12;;;;;;;31.63;18.02;;;-1.30;99.90;;;;;;5071019;28;20023;-56
2022/02/28 06:49:37;;;;;;;32.45;18.13;;;-1.20;99.90;;;;;;5070591;28;20089;-53
2022/02/28 06:52:04;;;;;;;26.85;16.02;;;-1.20;99.90;;;;;;5052624;28;20036;-52
2022/02/28 06:54:29;;;;;;;30.90;17.42;;;-1.20;99.90;;;;;;5071459;28;20107;-53
2022/02/28 06:56:55;;;;;;;31.88;17.70;;;-1.20;99.90;;;;;;5071375;28;20101;-50
2022/02/28 06:59:20;;;;;;;29.77;17.52;;;-1.20;99.90;;;;;;5070794;28;20488;-52
2022/02/28 07:01:46;;;;;;;26.83;16.63;;;-1.20;99.90;;;;;;5071043;28;20039;-51
2022/02/28 07:04:12;;;;;;;28.83;17.27;;;-1.10;99.90;;;;;;5071315;28;20444;-55
2022/02/28 07:06:38;;;;;;;29.48;16.85;;;-1.10;99.90;;;;;;5070140;28;20036;-53
2022/02/28 07:09:07;;;;;;;31.08;17.95;;;-1.10;99.90;;;;;;5071001;28;20060;-50
2022/02/28 07:11:34;;;;;;;28.13;16.92;;;-1.10;99.90;;;;;;5070723;28;20047;-55
2022/02/28 07:13:59;;;;;;;31.55;16.90;;;-1.00;99.90;;;;;;5070142;28;20036;-52
2022/02/28 07:16:25;;;;;;;30.55;17.58;;;-1.00;99.90;;;;;;5070895;28;20031;-54
2022/02/28 07:18:51;;;;;;;28.20;17.60;;;-1.00;99.90;;;;;;5052971;28;20032;-51
2022/02/28 07:21:16;;;;;;;29.15;17.30;;;-1.00;99.90;;;;;;5070470;28;20036;-51
2022/02/28 07:23:42;;;;;;;26.83;17.63;;;-1.00;99.90;;;;;;5070105;28;20036;-53
2022/02/28 07:26:07;;;;;;;29.92;18.23;;;-0.90;99.90;;;;;;5070510;28;20036;-54
2022/02/28 07:28:33;;;;;;;33.80;18.90;;;-0.90;99.90;;;;;;5070301;28;20032;-54
2022/02/28 07:30:59;;;;;;;28.50;18.55;;;-0.90;99.90;;;;;;5070281;28;20027;-52
2022/02/28 07:33:24;;;;;;;28.65;18.02;;;-0.80;99.90;;;;;;5070456;28;20025;-53
2022/02/28 07:35:50;;;;;;;31.33;17.40;;;-0.80;99.90;;;;;;5068979;28;20039;-53
2022/02/28 07:38:15;;;;;;;33.47;18.00;;;-0.70;99.90;;;;;;5069784;28;20125;-52
2022/02/28 07:40:41;;;;;;;33.30;18.52;;;-0.70;99.90;;;;;;5070241;28;20035;-51
2022/02/28 07:43:07;;;;;;;31.67;18.25;;;-0.70;99.90;;;;;;5068984;28;20660;-53
2022/02/28 07:45:32;;;;;;;32.75;19.40;;;-0.60;99.90;;;;;;5070502;28;20017;-56
2022/02/28 07:47:59;;;;;;;29.63;18.52;;;-0.50;99.90;;;;;;5070003;28;20025;-52
2022/02/28 07:50:25;;;;;;;30.77;17.00;;;-0.50;99.90;;;;;;5069775;28;20025;-54
2022/02/28 07:52:50;;;;;;;29.48;17.23;;;-0.50;99.90;;;;;;5069675;28;20057;-52
2022/02/28 07:55:16;;;;;;;30.55;18.30;;;-0.50;99.90;;;;;;5070025;28;20067;-52
2022/02/28 07:57:41;;;;;;;35.50;19.20;;;-0.40;99.90;;;;;;5070713;28;20093;-54
2022/02/28 08:00:09;;;;;;;29.98;19.27;;;-0.40;99.90;;;;;;5069656;28;20511;-53
2022/02/28 08:02:34;;;;;;;32.42;19.52;;;-0.30;99.90;;;;;;5068914;28;20503;-53
2022/02/28 08:05:00;;;;;;;32.03;18.10;;;-0.20;99.90;;;;;;5068908;28;20094;-53
2022/02/28 08:07:26;;;;;;;29.02;18.15;;;-0.20;99.90;;;;;;5069530;28;20021;-52
2022/02/28 08:09:52;;;;;;;27.38;17.92;;;-0.10;99.90;;;;;;5069819;28;20571;-53
2022/02/28 08:12:18;;;;;;;28.33;18.50;;;-0.10;99.90;;;;;;5051550;28;20108;-52
2022/02/28 08:14:43;;;;;;;32.63;19.30;;;0.00;99.90;;;;;;5070045;28;20036;-52
2022/02/28 08:17:09;;;;;;;30.65;18.90;;;0.10;99.90;;;;;;5069829;28;20511;-56
2022/02/28 08:19:35;;;;;;;29.85;18.02;;;0.20;99.90;;;;;;5069619;28;20056;-53
2022/02/28 08:22:01;;;;;;;29.90;17.70;;;0.20;99.90;;;;;;5069600;28;20069;-54
2022/02/28 08:24:26;;;;;;;31.25;18.13;;;0.30;99.90;;;;;;5069999;28;20043;-52
2022/02/28 08:26:52;;;;;;;29.60;17.50;;;0.40;99.90;;;;;;5069550;28;20032;-54
2022/02/28 08:29:17;;;;;;;30.73;18.83;;;0.60;99.90;;;;;;5051431;28;20056;-51
2022/02/28 08:31:43;;;;;;;29.02;18.35;;;0.80;99.90;;;;;;5069348;28;20036;-54
2022/02/28 08:34:09;;;;;;;27.83;17.38;;;0.90;99.90;;;;;;5069562;28;20032;-54
2022/02/28 08:36:35;;;;;;;31.40;19.35;;;1.00;99.90;;;;;;5069095;28;20740;-53
2022/02/28 08:39:03;;;;;;;28.88;17.67;;;1.10;99.90;;;;;;5069331;28;20032;-54
2022/02/28 08:41:29;;;;;;;29.50;17.23;;;1.30;99.90;;;;;;5069217;28;20602;-53
2022/02/28 08:43:54;;;;;;;25.63;15.73;;;1.50;99.90;;;;;;5069074;28;20032;-55
2022/02/28 08:46:20;;;;;;;28.33;17.48;;;1.60;99.90;;;;;;5068884;28;20032;-52
2022/02/28 08:48:45;;;;;;;26.90;18.20;;;1.80;99.90;;;;;;5069271;28;20028;-54
2022/02/28 08:51:11;;;;;;;25.85;17.17;;;2.00;99.90;;;;;;5068741;28;20107;-54
2022/02/28 08:53:36;;;;;;;26.20;17.30;;;2.10;99.90;;;;;;5068223;28;20120;-54
2022/02/28 08:56:02;;;;;;;25.55;16.48;;;2.30;99.90;;;;;;5068944;28;20041;-53
2022/02/28 08:58:28;;;;;;;25.73;16.77;;;2.40;99.90;;;;;;5069332;28;20097;-53
2022/02/28 09:00:54;;;;;;;26.70;17.05;;;2.60;99.90;;;;;;5069065;28;20037;-56
2022/02/28 09:03:19;;;;;;;29.65;17.60;;;2.70;99.90;;;;;;5050943;28;20052;-55
2022/02/28 09:05:45;;;;;;;28.02;16.63;;;2.80;99.90;;;;;;5050781;28;20036;-52
2022/02/28 09:08:10;;;;;;;22.52;15.57;;;3.00;99.90;;;;;;5069142;28;20033;-57
2022/02/28 09:10:36;;;;;;;25.52;15.60;;;3.10;99.90;;;;;;5068683;28;20028;-55
2022/02/28 09:13:02;;;;;;;25.13;16.38;;;3.20;99.90;;;;;;5068997;28;20031;-54
2022/02/28 09:15:27;;;;;;;24.45;15.65;;;3.40;99.90;;;;;;5069047;28;20033;-53
2022/02/28 09:17:53;;;;;;;26.92;16.92;;;3.50;99.90;;;;;;5069353;28;20194;-52
2022/02/28 09:20:19;;;;;;;24.30;16.17;;;3.60;99.90;;;;;;5068942;28;20020;-52
2022/02/28 09:22:45;;;;;;;22.77;16.13;;;3.60;99.90;;;;;;5068180;28;20081;-55
2022/02/28 09:25:11;;;;;;;21.08;15.68;;;3.70;99.90;;;;;;5069042;28;20036;-57
2022/02/28 09:27:37;;;;;;;20.58;15.32;;;3.80;99.90;;;;;;5067822;28;20500;-53
2022/02/28 09:30:04;;;;;;;25.67;15.65;;;3.90;99.90;;;;;;5068738;28;20016;-55
2022/02/28 09:32:29;;;;;;;24.40;15.63;;;4.00;99.90;;;;;;5068426;28;20032;-56
2022/02/28 09:34:55;;;;;;;22.70;15.32;;;4.10;99.90;;;;;;5068908;28;20047;-55
2022/02/28 09:37:20;;;;;;;23.02;15.82;;;4.20;99.90;;;;;;5068613;28;20032;-53
2022/02/28 09:39:46;;;;;;;25.65;16.27;;;4.20;99.90;;;;;;5069145;28;20043;-54
2022/02/28 09:42:13;;;;;;;19.75;13.60;;;4.30;99.90;;;;;;5068087;28;20032;-55
2022/02/28 09:44:39;;;;;;;22.73;14.65;;;4.30;99.90;;;;;;5069035;28;20028;-55
2022/02/28 09:47:06;;;;;;;22.20;14.23;;;4.40;99.90;;;;;;5068484;28;20495;-54
2022/02/28 09:49:31;;;;;;;23.08;15.90;;;4.50;99.90;;;;;;5068677;28;20497;-54
2022/02/28 09:51:57;;;;;;;25.27;14.80;;;4.60;99.90;;;;;;5068808;28;20032;-53
2022/02/28 09:54:23;;;;;;;23.05;15.23;;;4.60;99.90;;;;;;5068914;28;20029;-54
2022/02/28 09:56:50;;;;;;;23.05;14.57;;;4.70;99.90;;;;;;5068760;28;20055;-54
2022/02/28 09:59:19;;;;;;;22.10;15.43;;;4.80;99.90;;;;;;5050240;28;20078;-55
2022/02/28 10:01:45;;;;;;;23.90;15.15;;;4.90;99.90;;;;;;5067673;28;20484;-54
2022/02/28 10:04:13;;;;;;;21.80;15.15;;;5.00;99.90;;;;;;5067369;28;20028;-54
2022/02/28 10:06:39;;;;;;;23.75;14.07;;;5.00;99.90;;;;;;5072311;28;20040;-53
2022/02/28 10:09:07;;;;;;;26.88;15.68;;;5.10;99.90;;;;;;5072055;28;20094;-55
2022/02/28 10:11:34;;;;;;;20.15;13.60;;;5.10;99.90;;;;;;5054405;28;20060;-52
2022/02/28 10:14:06;;;;;;;19.33;13.93;;;5.10;99.90;;;;;;5071440;28;20066;-54
2022/02/28 10:16:41;;;;;;;24.25;14.88;;;5.20;99.90;;;;;;5054108;28;20029;-55
2022/02/28 10:19:10;;;;;;;24.30;14.35;;;5.20;99.90;;;;;;5071165;28;20094;-54
2022/02/28 10:21:37;;;;;;;21.38;14.45;;;5.30;99.90;;;;;;5072336;28;20088;-56
2022/02/28 10:24:03;;;;;;;22.15;14.68;;;5.40;99.90;;;;;;5072249;28;20032;-56
2022/02/28 10:26:46;;;;;;;20.23;13.73;;;5.40;99.90;;;;;;5072241;28;20032;-53
2022/02/28 10:29:20;;;;;;;20.02;14.40;;;5.40;99.90;;;;;;5071892;28;20021;-55
2022/02/28 10:31:47;;;;;;;25.80;14.38;;;5.50;99.90;;;;;;5071315;28;20028;-53
2022/02/28 10:34:21;;;;;;;20.23;13.30;;;5.40;99.90;;;;;;5071896;28;20024;-56
2022/02/28 10:36:57;;;;;;;21.42;14.65;;;5.50;99.90;;;;;;5071952;28;20050;-54
2022/02/28 10:39:25;;;;;;;20.17;13.40;;;5.50;99.90;;;;;;5071854;28;20035;-55
2022/02/28 10:41:51;;;;;;;21.73;13.52;;;5.50;99.90;;;;;;5071732;28;20035;-57
2022/02/28 10:44:16;;;;;;;20.38;13.45;;;5.60;99.90;;;;;;5071458;28;20388;-54
2022/02/28 10:46:44;;;;;;;19.90;12.82;;;5.60;99.90;;;;;;5071814;28;20025;-53
2022/02/28 10:49:17;;;;;;;20.63;12.57;;;5.60;99.90;;;;;;5071096;28;20032;-54
2022/02/28 10:51:55;;;;;;;20.73;13.98;;;5.60;99.90;;;;;;5071657;28;20042;-54
2022/02/28 10:54:25;;;;;;;19.92;13.43;;;5.60;99.90;;;;;;5071212;28;20055;-54
2022/02/28 10:56:57;;;;;;;19.55;13.80;;;5.60;99.90;;;;;;5071740;28;20021;-55
2022/02/28 10:59:26;;;;;;;20.67;13.80;;;5.60;99.90;;;;;;5071780;28;20024;-52
2022/02/28 11:01:53;;;;;;;19.27;11.68;;;5.60;99.90;;;;;;5071365;28;20031;-54
2022/02/28 11:04:32;;;;;;;20.42;13.25;;;5.70;99.90;;;;;;5071253;28;20024;-54
2022/02/28 11:06:58;;;;;;;19.08;12.55;;;5.80;99.90;;;;;;5071368;28;20072;-54
2022/02/28 11:09:36;;;;;;;20.75;13.20;;;5.80;99.90;;;;;;5071325;28;20016;-56
2022/02/28 11:12:40;;;;;;;22.02;14.35;;;5.90;99.90;;;;;;5071265;28;20017;-57
2022/02/28 11:15:08;;;;;;;22.58;14.20;;;6.00;99.90;;;;;;4970450;28;20543;-53
2022/02/28 11:17:39;;;;;;;21.42;13.57;;;6.00;99.90;;;;;;4968516;28;20559;-56
2022/02/28 11:20:10;;;;;;;21.55;14.40;;;6.10;99.90;;;;;;5012071;28;20037;-56
2022/02/28 11:22:39;;;;;;;18.63;13.43;;;6.10;99.90;;;;;;5055553;28;20098;-55
2022/02/28 11:25:09;;;;;;;18.35;12.63;;;6.20;99.90;;;;;;5071155;28;20020;-55
2022/02/28 11:27:36;;;;;;;20.15;13.23;;;6.10;99.90;;;;;;5070103;28;20408;-57
2022/02/28 11:30:11;;;;;;;17.98;12.82;;;6.10;99.90;;;;;;5070689;28;20178;-54
2022/02/28 11:32:38;;;;;;;19.08;12.02;;;6.10;99.90;;;;;;5070981;28;20031;-54
2022/02/28 11:35:34;;;;;;;15.50;11.75;;;6.10;99.90;;;;;;5070892;28;20032;-54
2022/02/28 11:38:01;;;;;;;20.98;12.88;;;6.10;99.90;;;;;;5071129;28;20391;-55
2022/02/28 11:40:35;;;;;;;18.35;12.60;;;6.20;99.90;;;;;;5070461;28;20040;-55
2022/02/28 11:43:02;;;;;;;18.33;12.82;;;6.20;99.90;;;;;;5070627;28;20025;-52
2022/02/28 11:45:32;;;;;;;19.63;12.88;;;6.30;99.90;;;;;;5070609;28;20020;-55
2022/02/28 11:48:11;;;;;;;17.60;11.70;;;6.30;99.90;;;;;;5070788;28;20036;-54
2022/02/28 11:50:54;;;;;;;17.02;12.95;;;6.40;99.90;;;;;;5070606;28;20053;-56
2022/02/28 11:53:38;;;;;;;19.10;12.82;;;6.40;99.90;;;;;;5070772;28;20060;-54
2022/02/28 11:56:15;;;;;;;15.05;11.77;;;6.40;99.90;;;;;;5070164;28;20687;-55
2022/02/28 11:59:13;;;;;;;21.15;12.20;;;6.40;99.90;;;;;;5070504;28;20040;-54
2022/02/28 12:01:41;;;;;;;16.35;12.32;;;6.40;99.90;;;;;;5059588;28;20388;-53
2022/02/28 12:04:15;;;;;;;19.17;12.32;;;6.30;99.90;;;;;;5069956;28;20059;-52
2022/02/28 12:06:55;;;;;;;19.08;12.93;;;6.40;99.90;;;;;;5069879;28;20032;-55
2022/02/28 12:09:36;;;;;;;17.95;12.13;;;6.40;99.90;;;;;;5070269;28;20021;-57
2022/02/28 12:12:27;;;;;;;17.73;12.93;;;6.40;99.90;;;;;;5070054;28;20070;-55
2022/02/28 12:14:56;;;;;;;17.75;11.63;;;6.40;99.90;;;;;;5070381;28;20020;-55
2022/02/28 12:17:35;;;;;;;15.73;10.95;;;6.30;99.90;;;;;;5069956;28;20104;-55
2022/02/28 12:20:20;;;;;;;14.23;10.52;;;6.40;99.90;;;;;;5070475;28;20051;-56
2022/02/28 12:22:52;;;;;;;20.65;13.10;;;6.40;99.90;;;;;;5069945;28;20504;-57
2022/02/28 12:25:36;;;;;;;19.27;12.57;;;6.40;99.90;;;;;;5069770;28;20109;-54
2022/02/28 12:28:15;;;;;;;16.15;11.20;;;6.40;99.90;;;;;;5069694;28;20036;-54
2022/02/28 12:30:49;;;;;;;15.00;10.13;;;6.40;99.90;;;;;;5070108;28;20089;-56